Time;durP1;ratioP1;P1;durP2;ratioP2;P2;SDS_P1;SDS_P2;PMS_P1;PMS_P2;Temp;Humidity;BMP_temperature;BMP_pressure;BME280_temperature;BME280_humidity;BME280_pressure;Samples;Min_cycle;Max_cycle;Signal;HPM_P1;HPM_P2
2022/07/02 00:00:15;;;;;;;0.68;0.68;;;15.00;99.90;;;;;;5216597;28;20039;-63
2022/07/02 00:02:51;;;;;;;0.70;0.70;;;15.00;99.90;;;;;;5232405;28;20025;-62
2022/07/02 00:05:27;;;;;;;0.80;0.80;;;15.00;99.90;;;;;;5236250;28;20044;-63
2022/07/02 00:08:05;;;;;;;0.70;0.70;;;15.00;99.90;;;;;;5247163;28;20324;-63
2022/07/02 00:10:38;;;;;;;0.70;0.70;;;15.10;99.90;;;;;;5239841;28;20029;-63
2022/07/02 00:13:12;;;;;;;1.00;1.00;;;15.00;99.90;;;;;;5219851;28;20037;-63
2022/07/02 00:15:44;;;;;;;0.63;0.63;;;15.00;99.90;;;;;;5236663;28;20044;-64
2022/07/02 00:18:19;;;;;;;0.63;0.63;;;15.00;99.90;;;;;;5235301;28;20024;-61
2022/07/02 00:20:50;;;;;;;;;;;15.00;99.90;;;;;;5236443;28;20032;-62
2022/07/02 00:23:21;;;;;;;0.70;0.70;;;15.00;99.90;;;;;;5235580;28;19901;-62
2022/07/02 00:26:32;;;;;;;0.70;0.70;;;14.90;99.90;;;;;;5219608;28;20036;-62
2022/07/02 00:29:33;;;;;;;0.80;0.80;;;14.90;99.90;;;;;;5236358;28;20198;-62
2022/07/02 00:32:07;;;;;;;1.50;0.88;;;14.90;99.90;;;;;;5237539;28;20027;-61
2022/07/02 00:34:39;;;;;;;0.70;0.70;;;14.90;99.90;;;;;;5220404;28;20123;-62
2022/07/02 00:37:13;;;;;;;0.70;0.70;;;14.80;99.90;;;;;;5216705;28;20303;-64
2022/07/02 00:39:47;;;;;;;0.88;0.88;;;14.90;99.90;;;;;;5216141;28;20036;-61
2022/07/02 00:42:20;;;;;;;0.73;0.73;;;14.90;99.90;;;;;;5217091;28;20032;-62
2022/07/02 00:44:52;;;;;;;0.80;0.80;;;14.90;99.90;;;;;;5214456;28;20037;-61
2022/07/02 00:47:26;;;;;;;0.70;0.70;;;14.90;99.90;;;;;;5215038;28;20021;-62
2022/07/02 00:49:59;;;;;;;0.88;0.88;;;14.90;99.90;;;;;;5219186;28;20024;-61
2022/07/02 00:52:30;;;;;;;0.80;0.80;;;14.80;99.90;;;;;;5217902;28;20029;-61
2022/07/02 00:55:02;;;;;;;0.73;0.73;;;14.80;99.90;;;;;;5218012;28;20029;-62
2022/07/02 00:57:38;;;;;;;0.88;0.88;;;14.80;99.90;;;;;;5216684;28;20337;-61
2022/07/02 01:00:12;;;;;;;0.77;0.77;;;14.80;99.90;;;;;;5220336;28;20037;-61
2022/07/02 01:02:44;;;;;;;0.70;0.70;;;14.80;99.90;;;;;;5251086;28;20035;-61
2022/07/02 01:05:21;;;;;;;0.63;0.63;;;14.70;99.90;;;;;;5227530;28;20285;-62
2022/07/02 01:10:49;;;;;;;0.85;0.85;;;14.70;99.90;;;;;;5218897;28;20041;-62
2022/07/02 01:13:24;;;;;;;0.68;0.68;;;14.70;99.90;;;;;;5217635;28;20025;-64
2022/07/02 01:16:03;;;;;;;0.85;0.85;;;14.70;99.90;;;;;;5236577;28;20059;-62
2022/07/02 01:18:36;;;;;;;0.80;0.80;;;14.70;99.90;;;;;;5237623;28;20037;-62
2022/07/02 01:21:11;;;;;;;1.40;1.00;;;14.70;99.90;;;;;;5237187;28;20035;-61
2022/07/02 01:23:42;;;;;;;0.90;0.90;;;14.70;99.90;;;;;;5238978;28;20025;-61
2022/07/02 01:26:24;;;;;;;0.77;0.77;;;14.60;99.90;;;;;;5237000;28;20314;-61
2022/07/02 01:28:57;;;;;;;0.85;0.85;;;14.50;99.90;;;;;;5230235;28;20027;-62
2022/07/02 01:31:34;;;;;;;1.35;1.25;;;14.50;99.90;;;;;;5233608;28;20040;-62
2022/07/02 01:34:06;;;;;;;0.77;0.77;;;14.40;99.90;;;;;;5200654;28;20187;-62
2022/07/02 01:36:41;;;;;;;0.88;0.88;;;14.30;99.90;;;;;;5215810;28;20041;-62
2022/07/02 01:39:24;;;;;;;0.60;0.60;;;14.30;99.90;;;;;;5216866;28;20211;-62
2022/07/02 01:42:00;;;;;;;1.05;1.05;;;14.20;99.90;;;;;;5235065;28;20031;-62
2022/07/02 01:44:35;;;;;;;0.80;0.80;;;14.20;99.90;;;;;;5217601;28;20037;-62
2022/07/02 01:47:13;;;;;;;0.90;0.90;;;14.30;99.90;;;;;;5215362;28;20041;-62
2022/07/02 01:49:46;;;;;;;3.17;0.80;;;14.40;99.90;;;;;;5217676;28;20108;-61
2022/07/02 01:53:00;;;;;;;0.80;0.80;;;14.40;99.90;;;;;;5216749;28;20035;-61
2022/07/02 01:55:32;;;;;;;0.90;0.90;;;14.40;99.90;;;;;;5216744;28;20055;-61
2022/07/02 01:58:06;;;;;;;1.20;1.10;;;14.30;99.90;;;;;;5216751;28;20187;-62
2022/07/02 02:00:40;;;;;;;0.95;0.90;;;14.30;99.90;;;;;;5218058;28;20037;-62
2022/07/02 02:03:14;;;;;;;1.15;0.80;;;14.30;99.90;;;;;;5233679;28;20026;-61
2022/07/02 02:05:45;;;;;;;0.80;0.80;;;14.30;99.90;;;;;;5218015;28;20032;-62
2022/07/02 02:08:19;;;;;;;0.93;0.80;;;14.20;99.90;;;;;;5229883;28;20059;-62
2022/07/02 02:10:50;;;;;;;1.00;0.93;;;14.20;99.90;;;;;;5228063;28;20028;-62
2022/07/02 02:13:21;;;;;;;1.08;1.00;;;14.20;99.90;;;;;;5238547;28;20031;-62
2022/07/02 02:15:52;;;;;;;0.98;0.90;;;14.20;99.90;;;;;;5236890;28;20024;-62
2022/07/02 02:18:24;;;;;;;0.73;0.73;;;14.20;99.90;;;;;;5220185;28;20246;-62
2022/07/02 02:21:00;;;;;;;1.20;1.10;;;14.20;99.90;;;;;;5237093;28;20055;-62
2022/07/02 02:23:33;;;;;;;1.15;1.08;;;14.20;99.90;;;;;;5237262;28;20029;-62
2022/07/02 02:26:04;;;;;;;1.20;1.10;;;14.10;99.90;;;;;;5217514;28;20033;-62
2022/07/02 02:28:36;;;;;;;1.63;1.52;;;14.10;99.90;;;;;;5236499;28;20039;-61
2022/07/02 02:31:07;;;;;;;1.52;1.25;;;14.20;99.90;;;;;;5226080;28;20037;-61
2022/07/02 02:33:38;;;;;;;1.40;1.30;;;14.20;99.90;;;;;;5204147;28;20033;-62
2022/07/02 02:36:10;;;;;;;0.95;0.95;;;14.20;99.90;;;;;;5218693;28;20025;-62
2022/07/02 02:38:46;;;;;;;1.10;1.08;;;14.20;99.90;;;;;;5223680;28;20222;-61
2022/07/02 02:41:17;;;;;;;1.88;1.55;;;14.10;99.90;;;;;;5237873;28;20221;-62
2022/07/02 02:43:51;;;;;;;1.45;1.27;;;14.20;99.90;;;;;;5236634;28;20027;-61
2022/07/02 02:46:23;;;;;;;;;;;14.20;99.90;;;;;;5214801;28;20045;-62
2022/07/02 02:48:58;;;;;;;1.63;1.40;;;14.40;99.90;;;;;;5207061;28;19901;-61
2022/07/02 02:51:32;;;;;;;2.80;1.35;;;14.40;99.90;;;;;;5214105;28;20232;-62
2022/07/02 02:54:05;;;;;;;1.40;1.20;;;14.30;99.90;;;;;;5230312;28;20039;-62
2022/07/02 02:56:37;;;;;;;1.60;1.50;;;14.40;99.90;;;;;;5235922;28;20036;-62
2022/07/02 02:59:13;;;;;;;2.33;1.58;;;14.30;99.90;;;;;;5219426;28;20243;-62
2022/07/02 03:01:46;;;;;;;2.03;1.70;;;14.30;99.90;;;;;;5214055;28;20032;-62
2022/07/02 03:04:25;;;;;;;2.00;1.77;;;14.20;99.90;;;;;;5208502;28;20031;-62
2022/07/02 03:07:02;;;;;;;1.77;1.60;;;14.30;99.90;;;;;;5233653;28;20039;-62
2022/07/02 03:09:36;;;;;;;1.98;1.42;;;14.20;99.90;;;;;;5234516;28;20036;-62
2022/07/02 03:12:11;;;;;;;1.33;1.23;;;14.30;99.90;;;;;;5230313;28;20325;-62
2022/07/02 03:14:49;;;;;;;2.15;1.95;;;14.30;99.90;;;;;;5237536;28;20214;-62
2022/07/02 03:17:23;;;;;;;1.70;1.60;;;14.30;99.90;;;;;;5235219;28;20051;-62
2022/07/02 03:19:55;;;;;;;2.20;1.48;;;14.30;99.90;;;;;;5220465;28;20302;-62
2022/07/02 03:22:26;;;;;;;2.17;1.98;;;14.30;99.90;;;;;;5235243;28;20034;-62
2022/07/02 03:24:58;;;;;;;2.03;1.63;;;14.30;99.90;;;;;;5236134;28;20033;-61
2022/07/02 03:27:32;;;;;;;2.13;1.30;;;14.30;99.90;;;;;;5200492;28;20025;-61
2022/07/02 03:30:07;;;;;;;2.58;1.67;;;14.30;99.90;;;;;;5217340;28;20043;-61
2022/07/02 03:32:41;;;;;;;1.92;1.70;;;14.30;99.90;;;;;;5199669;28;20025;-62
2022/07/02 03:35:12;;;;;;;1.98;1.50;;;14.40;99.90;;;;;;5215654;28;20356;-62
2022/07/02 03:37:46;;;;;;;1.83;1.38;;;14.40;99.90;;;;;;5233788;28;20044;-61
2022/07/02 03:40:18;;;;;;;3.30;1.23;;;14.50;99.90;;;;;;5236323;28;20021;-62
2022/07/02 03:42:49;;;;;;;2.28;1.70;;;14.50;99.90;;;;;;5236063;28;20256;-62
2022/07/02 03:45:22;;;;;;;3.38;1.55;;;14.60;99.90;;;;;;5237025;28;20033;-62
2022/07/02 03:47:53;;;;;;;1.80;1.70;;;14.60;99.90;;;;;;5235170;28;20194;-62
2022/07/02 03:50:31;;;;;;;1.80;1.60;;;14.70;99.90;;;;;;5202926;28;20047;-62
2022/07/02 03:53:02;;;;;;;1.90;1.65;;;14.70;99.90;;;;;;5236257;28;20027;-62
2022/07/02 03:55:33;;;;;;;1.75;1.58;;;14.70;99.90;;;;;;5235898;28;20037;-63
2022/07/02 03:58:12;;;;;;;1.60;1.38;;;14.80;99.90;;;;;;5221070;28;20055;-62
2022/07/02 04:00:43;;;;;;;2.00;1.70;;;14.80;99.90;;;;;;5210139;28;20032;-61
2022/07/02 04:03:17;;;;;;;1.92;1.65;;;14.90;99.90;;;;;;5226352;28;20328;-62
2022/07/02 04:05:52;;;;;;;2.95;2.45;;;15.00;99.90;;;;;;5218442;28;20143;-62
2022/07/02 04:08:26;;;;;;;1.48;1.35;;;15.10;99.90;;;;;;5231096;28;20037;-62
2022/07/02 04:10:57;;;;;;;1.50;1.40;;;15.10;99.90;;;;;;5231254;28;20038;-62
2022/07/02 04:13:33;;;;;;;1.70;1.38;;;15.20;99.90;;;;;;5224930;28;20032;-62
2022/07/02 04:16:07;;;;;;;1.90;1.58;;;15.20;99.90;;;;;;5233819;28;20020;-63
2022/07/02 04:18:38;;;;;;;2.03;1.83;;;15.30;99.90;;;;;;5237742;28;20033;-62
2022/07/02 04:21:14;;;;;;;1.88;1.55;;;15.30;99.90;;;;;;5218706;28;20025;-62
2022/07/02 04:23:46;;;;;;;1.90;1.42;;;15.30;99.90;;;;;;5235480;28;20323;-64
2022/07/02 04:26:17;;;;;;;1.70;1.23;;;15.50;99.90;;;;;;5237730;28;20044;-62
2022/07/02 04:28:48;;;;;;;1.48;1.25;;;15.40;99.90;;;;;;5238514;28;20197;-63
2022/07/02 04:31:22;;;;;;;2.47;1.73;;;15.50;99.90;;;;;;5238016;28;20025;-62
2022/07/02 04:33:53;;;;;;;1.58;1.48;;;15.60;99.90;;;;;;5238068;28;20037;-62
2022/07/02 04:36:27;;;;;;;1.58;1.42;;;15.70;99.90;;;;;;5237816;28;20033;-62
2022/07/02 04:39:01;;;;;;;1.47;1.37;;;15.80;99.90;;;;;;5220121;28;20041;-64
2022/07/02 04:41:34;;;;;;;;;;;15.80;99.90;;;;;;5220788;28;20443;-63
2022/07/02 04:44:05;;;;;;;1.30;1.20;;;15.80;99.90;;;;;;5235517;28;19927;-62
2022/07/02 04:46:39;;;;;;;1.40;1.30;;;15.90;99.90;;;;;;5235751;28;20029;-62
2022/07/02 04:49:10;;;;;;;1.52;1.42;;;15.90;99.90;;;;;;5236872;28;20054;-62
2022/07/02 04:51:41;;;;;;;1.45;1.35;;;16.00;99.90;;;;;;5233987;28;20029;-62
2022/07/02 04:54:15;;;;;;;1.40;1.30;;;16.00;99.90;;;;;;5235679;28;20317;-63
2022/07/02 04:56:48;;;;;;;1.17;1.17;;;16.00;99.90;;;;;;5228089;28;20029;-62
2022/07/02 04:59:19;;;;;;;1.30;1.20;;;16.10;99.90;;;;;;5216672;28;20025;-62
2022/07/02 05:01:53;;;;;;;1.55;1.45;;;16.10;99.90;;;;;;5216493;28;20040;-63
2022/07/02 05:04:24;;;;;;;1.30;1.20;;;16.20;99.90;;;;;;5209576;28;20217;-62
2022/07/02 05:06:55;;;;;;;0.85;0.85;;;16.20;99.90;;;;;;5214950;28;20582;-62
2022/07/02 05:09:26;;;;;;;4.57;1.40;;;16.10;99.90;;;;;;5218727;28;20037;-62
2022/07/02 05:12:00;;;;;;;1.20;1.10;;;16.10;99.90;;;;;;5216477;28;20017;-62
2022/07/02 05:14:32;;;;;;;1.45;1.20;;;16.20;99.90;;;;;;5217031;28;20039;-62
2022/07/02 05:17:05;;;;;;;1.02;0.98;;;16.20;99.90;;;;;;5217007;28;20035;-62
2022/07/02 05:19:39;;;;;;;0.90;0.90;;;16.30;99.90;;;;;;5211202;28;20030;-62
2022/07/02 05:22:10;;;;;;;1.20;1.10;;;16.30;99.90;;;;;;5226851;28;20022;-62
2022/07/02 05:24:43;;;;;;;1.35;1.15;;;16.40;99.90;;;;;;5234851;28;20033;-62
2022/07/02 05:27:23;;;;;;;1.52;1.42;;;16.30;99.90;;;;;;5214515;28;20037;-61
2022/07/02 05:29:57;;;;;;;1.30;1.20;;;16.40;99.90;;;;;;5216705;28;20294;-62
2022/07/02 05:32:30;;;;;;;0.98;0.98;;;16.40;99.90;;;;;;5213649;28;20047;-62
2022/07/02 05:35:03;;;;;;;1.10;1.10;;;16.50;99.90;;;;;;5214177;28;20029;-63
2022/07/02 05:37:34;;;;;;;0.80;0.80;;;16.30;99.90;;;;;;5215698;28;20044;-63
2022/07/02 05:40:06;;;;;;;1.20;1.10;;;16.30;99.90;;;;;;5216996;28;20048;-62
2022/07/02 05:42:39;;;;;;;2.03;1.42;;;16.50;99.90;;;;;;5217358;28;20029;-61
2022/07/02 05:45:12;;;;;;;0.80;0.80;;;16.60;99.90;;;;;;5219101;28;20307;-61
2022/07/02 05:47:48;;;;;;;0.93;0.90;;;16.60;99.90;;;;;;5197369;28;20036;-62
2022/07/02 05:50:21;;;;;;;1.00;1.00;;;16.80;99.90;;;;;;5217306;28;20025;-61
2022/07/02 05:52:57;;;;;;;1.25;1.15;;;16.80;99.90;;;;;;5222407;28;20322;-61
2022/07/02 05:55:32;;;;;;;0.98;0.95;;;16.80;99.90;;;;;;5232348;28;20025;-61
2022/07/02 05:58:03;;;;;;;1.25;1.15;;;16.80;99.90;;;;;;5236465;28;20033;-61
2022/07/02 06:00:40;;;;;;;1.10;1.00;;;16.80;99.90;;;;;;5215242;28;20039;-61
2022/07/02 06:03:11;;;;;;;0.80;0.80;;;16.90;99.90;;;;;;5214602;28;20031;-61
2022/07/02 06:08:35;;;;;;;1.02;1.00;;;17.00;99.90;;;;;;5216102;28;20198;-62
2022/07/02 06:11:06;;;;;;;1.83;1.20;;;17.10;99.90;;;;;;5215119;28;20029;-61
2022/07/02 06:13:42;;;;;;;1.20;1.10;;;17.10;99.90;;;;;;5199334;28;20029;-61
2022/07/02 06:16:16;;;;;;;1.08;0.98;;;17.20;99.90;;;;;;5215231;28;20036;-61
2022/07/02 06:18:49;;;;;;;1.10;1.00;;;17.10;99.90;;;;;;5214961;28;20033;-61
2022/07/02 06:21:23;;;;;;;2.85;1.30;;;17.30;99.90;;;;;;5215537;28;20025;-61
2022/07/02 06:23:56;;;;;;;0.93;0.90;;;17.20;99.90;;;;;;5222424;28;20020;-61
2022/07/02 06:26:33;;;;;;;1.58;1.10;;;17.50;99.90;;;;;;5221834;28;20026;-60
2022/07/02 06:29:04;;;;;;;1.10;1.05;;;17.60;99.90;;;;;;5235550;28;20033;-61
2022/07/02 06:31:36;;;;;;;1.30;1.20;;;17.80;99.90;;;;;;5235509;28;20393;-61
2022/07/02 06:34:13;;;;;;;1.08;1.00;;;17.90;99.90;;;;;;5231346;28;20039;-61
2022/07/02 06:36:44;;;;;;;3.20;1.00;;;18.20;99.90;;;;;;5232845;28;20039;-61
2022/07/02 06:39:15;;;;;;;2.20;1.35;;;18.40;99.90;;;;;;5222455;28;20124;-61
2022/07/02 06:44:37;;;;;;;0.90;0.90;;;18.50;99.90;;;;;;5202629;28;20055;-62
2022/07/02 06:47:09;;;;;;;1.30;1.00;;;18.50;99.90;;;;;;5233581;28;20037;-60
2022/07/02 06:49:44;;;;;;;0.93;0.82;;;18.60;99.90;;;;;;5218189;28;20043;-60
2022/07/02 06:52:16;;;;;;;1.08;0.98;;;18.60;99.90;;;;;;5219303;28;20025;-60
2022/07/02 06:54:50;;;;;;;0.90;0.90;;;18.60;99.90;;;;;;5216477;28;20021;-61
2022/07/02 06:57:24;;;;;;;1.38;1.00;;;18.70;99.90;;;;;;5216351;28;20037;-60
2022/07/02 06:59:58;;;;;;;1.25;1.10;;;18.60;99.90;;;;;;5221849;28;20333;-60
2022/07/02 07:02:32;;;;;;;1.20;1.10;;;18.30;99.90;;;;;;5221436;28;20047;-60
2022/07/02 07:05:06;;;;;;;1.40;1.25;;;18.30;99.90;;;;;;5214777;28;20151;-60
2022/07/02 07:07:37;;;;;;;1.08;0.98;;;18.40;99.90;;;;;;5237957;28;20043;-60
2022/07/02 07:10:10;;;;;;;1.00;0.90;;;18.40;99.90;;;;;;5238125;28;20332;-60
2022/07/02 07:12:42;;;;;;;1.13;1.02;;;18.80;99.90;;;;;;5235639;28;20035;-60
2022/07/02 07:15:15;;;;;;;1.00;0.90;;;19.00;99.90;;;;;;5237575;28;20039;-61
2022/07/02 07:17:49;;;;;;;1.38;1.27;;;18.70;99.90;;;;;;5239505;28;20039;-60
2022/07/02 07:20:29;;;;;;;1.08;1.00;;;18.50;99.90;;;;;;5219953;28;20029;-61
2022/07/02 07:23:00;;;;;;;1.15;0.98;;;18.50;99.90;;;;;;5235786;28;20029;-59
2022/07/02 07:25:32;;;;;;;1.20;1.10;;;18.60;99.90;;;;;;5219039;28;20313;-60
2022/07/02 07:28:03;;;;;;;1.40;1.30;;;18.70;99.90;;;;;;5235619;28;20036;-60
2022/07/02 07:30:37;;;;;;;1.17;1.02;;;19.00;99.90;;;;;;5236247;28;20326;-59
2022/07/02 07:33:14;;;;;;;1.02;0.98;;;19.20;99.90;;;;;;5236038;28;20329;-60
2022/07/02 07:35:45;;;;;;;1.10;1.00;;;19.40;99.90;;;;;;5219339;28;20033;-60
2022/07/02 07:38:16;;;;;;;1.40;1.30;;;19.20;99.90;;;;;;5237226;28;20025;-59
2022/07/02 07:40:47;;;;;;;1.30;1.20;;;18.80;99.90;;;;;;5219938;28;20338;-59
2022/07/02 07:43:18;;;;;;;1.60;1.17;;;18.70;99.90;;;;;;5202301;28;20039;-59
2022/07/02 07:45:52;;;;;;;1.65;1.02;;;19.00;99.90;;;;;;5238531;28;20033;-59
2022/07/02 07:48:26;;;;;;;1.10;1.10;;;18.80;99.90;;;;;;5238173;28;20033;-59
2022/07/02 07:50:57;;;;;;;1.40;1.30;;;19.10;99.90;;;;;;5218660;28;20025;-61
2022/07/02 07:53:33;;;;;;;0.90;0.90;;;19.20;99.90;;;;;;5184582;28;20068;-61
2022/07/02 07:56:05;;;;;;;1.63;1.48;;;19.00;99.90;;;;;;5197907;28;20028;-61
2022/07/02 07:58:42;;;;;;;1.10;1.05;;;19.00;99.90;;;;;;5196904;28;20035;-59
2022/07/02 08:01:15;;;;;;;1.45;1.15;;;19.30;99.90;;;;;;5207997;28;20031;-62
2022/07/02 08:03:49;;;;;;;1.07;1.03;;;19.30;99.90;;;;;;5213127;28;20021;-61
2022/07/02 08:06:20;;;;;;;11.27;1.25;;;20.00;99.90;;;;;;5172276;28;20223;-61
2022/07/02 08:08:51;;;;;;;1.20;1.10;;;19.90;99.90;;;;;;5217287;28;20032;-61
2022/07/02 08:11:25;;;;;;;1.00;1.00;;;19.60;99.90;;;;;;5216260;28;20037;-61
2022/07/02 08:13:59;;;;;;;0.80;0.80;;;19.80;99.90;;;;;;5218283;28;20019;-61
2022/07/02 08:16:35;;;;;;;1.40;1.30;;;19.60;99.90;;;;;;5200218;28;20040;-61
2022/07/02 08:19:11;;;;;;;1.48;1.25;;;19.60;99.90;;;;;;5218324;28;20208;-61
2022/07/02 08:21:43;;;;;;;1.02;1.02;;;20.00;99.90;;;;;;5217319;28;20012;-61
2022/07/02 08:24:15;;;;;;;1.45;1.35;;;20.10;99.90;;;;;;5209978;28;20047;-60
2022/07/02 08:26:48;;;;;;;1.60;1.10;;;20.40;99.90;;;;;;5215467;28;20033;-60
2022/07/02 08:29:19;;;;;;;1.10;1.00;;;20.20;99.90;;;;;;5210409;28;20318;-61
2022/07/02 08:31:52;;;;;;;2.58;1.35;;;20.20;99.90;;;;;;5207224;28;20304;-61
2022/07/02 08:34:25;;;;;;;1.08;1.05;;;20.50;99.90;;;;;;5197262;28;20018;-61
2022/07/02 08:36:57;;;;;;;1.13;1.02;;;20.30;99.90;;;;;;5199634;28;20049;-60
2022/07/02 08:39:28;;;;;;;1.10;1.00;;;20.50;99.90;;;;;;5211838;28;20032;-60
2022/07/02 08:42:05;;;;;;;0.98;0.98;;;20.60;99.90;;;;;;5205119;28;20356;-61
2022/07/02 08:44:38;;;;;;;1.20;1.10;;;20.70;99.90;;;;;;5200467;28;20326;-60
2022/07/02 08:47:12;;;;;;;0.88;0.88;;;20.50;99.90;;;;;;5195766;28;20017;-61
2022/07/02 08:49:46;;;;;;;1.02;0.98;;;20.80;99.90;;;;;;5201688;28;20013;-61
2022/07/02 08:52:24;;;;;;;0.95;0.95;;;20.50;99.90;;;;;;5212389;28;20025;-61
2022/07/02 08:54:58;;;;;;;1.00;0.90;;;20.50;99.90;;;;;;5197639;28;20047;-61
2022/07/02 08:57:35;;;;;;;1.03;0.80;;;21.00;99.90;;;;;;5197156;28;20210;-60
2022/07/02 09:00:10;;;;;;;0.90;0.90;;;21.20;99.90;;;;;;5201590;28;20017;-61
2022/07/02 09:02:49;;;;;;;1.17;0.80;;;21.60;99.90;;;;;;5216943;28;20230;-61
2022/07/02 09:05:21;;;;;;;0.90;0.80;;;21.50;99.90;;;;;;5210425;28;20060;-61
2022/07/02 09:07:55;;;;;;;0.90;0.90;;;21.80;99.90;;;;;;5222639;28;20314;-60
2022/07/02 09:10:29;;;;;;;1.67;0.70;;;21.50;99.90;;;;;;5220002;28;20051;-61
2022/07/02 09:13:03;;;;;;;1.00;0.90;;;21.10;99.90;;;;;;5221342;28;20047;-60
2022/07/02 09:15:35;;;;;;;0.77;0.70;;;21.10;99.90;;;;;;5221802;28;20091;-61
2022/07/02 09:18:06;;;;;;;0.77;0.77;;;21.30;99.90;;;;;;5209050;28;20037;-60
2022/07/02 09:20:37;;;;;;;1.48;0.80;;;21.00;99.90;;;;;;5219501;28;20017;-61
2022/07/02 09:23:22;;;;;;;0.90;0.90;;;21.10;99.90;;;;;;5208584;28;20025;-61
2022/07/02 09:25:53;;;;;;;1.17;1.08;;;21.80;99.90;;;;;;5201312;28;20022;-64
2022/07/02 09:28:24;;;;;;;0.70;0.70;;;22.30;99.90;;;;;;5205934;28;20215;-60
2022/07/02 09:31:03;;;;;;;1.00;0.90;;;21.80;99.90;;;;;;5219656;28;20028;-61
2022/07/02 09:33:39;;;;;;;1.13;1.13;;;21.80;99.90;;;;;;5219445;28;20021;-61
2022/07/02 09:36:20;;;;;;;0.70;0.60;;;22.20;99.90;;;;;;5220672;28;20025;-63
2022/07/02 09:38:53;;;;;;;0.70;0.70;;;23.10;99.90;;;;;;5220653;28;20017;-61
2022/07/02 09:41:27;;;;;;;0.60;0.60;;;23.20;99.90;;;;;;5217836;28;20037;-61
2022/07/02 09:44:03;;;;;;;0.65;0.65;;;23.60;99.90;;;;;;5219351;28;20310;-62
2022/07/02 09:46:42;;;;;;;0.70;0.70;;;23.70;99.90;;;;;;5216269;28;20206;-62
2022/07/02 09:49:15;;;;;;;0.43;0.43;;;23.00;99.90;;;;;;5218592;28;20033;-62
2022/07/02 09:51:53;;;;;;;1.15;0.82;;;23.70;99.90;;;;;;5218844;28;20023;-62
2022/07/02 09:54:25;;;;;;;3.17;0.80;;;23.50;99.90;;;;;;5199167;28;20033;-62
2022/07/02 09:57:01;;;;;;;0.75;0.75;;;23.90;99.90;;;;;;5197069;28;20035;-62
2022/07/02 09:59:36;;;;;;;1.25;0.82;;;23.90;99.90;;;;;;5198145;28;20032;-62
2022/07/02 10:02:27;;;;;;;0.60;0.60;;;23.40;99.90;;;;;;5210070;28;20333;-63
2022/07/02 10:05:04;;;;;;;0.80;0.80;;;22.50;99.90;;;;;;5216398;28;20339;-61
2022/07/02 10:07:35;;;;;;;0.55;0.55;;;22.70;99.90;;;;;;5228730;28;20033;-61
2022/07/02 10:10:07;;;;;;;0.60;0.60;;;22.20;99.90;;;;;;5219812;28;20039;-60
2022/07/02 10:12:41;;;;;;;0.60;0.60;;;22.30;99.90;;;;;;5201480;28;20040;-61
2022/07/02 10:15:19;;;;;;;1.17;1.10;;;23.10;99.90;;;;;;5216818;28;20031;-61
2022/07/02 10:17:57;;;;;;;0.90;0.90;;;23.00;99.90;;;;;;5219336;28;20029;-61
2022/07/02 10:20:30;;;;;;;0.60;0.60;;;22.20;99.90;;;;;;5218021;28;20041;-61
2022/07/02 10:23:05;;;;;;;0.63;0.63;;;22.40;99.90;;;;;;5206859;28;20462;-62
2022/07/02 10:25:36;;;;;;;1.30;0.70;;;22.60;99.90;;;;;;5198618;28;20069;-60
2022/07/02 10:28:10;;;;;;;0.60;0.60;;;22.80;99.90;;;;;;5197651;28;20064;-60
2022/07/02 10:30:42;;;;;;;1.13;0.77;;;23.20;99.90;;;;;;5198862;28;20116;-62
2022/07/02 10:33:28;;;;;;;0.98;0.80;;;24.10;99.90;;;;;;5199698;28;20040;-61
2022/07/02 10:36:04;;;;;;;0.80;0.80;;;24.10;99.90;;;;;;5217323;28;20360;-63
2022/07/02 10:38:38;;;;;;;1.23;0.77;;;24.10;99.90;;;;;;5218493;28;20024;-60
2022/07/02 10:41:10;;;;;;;0.80;0.80;;;24.10;99.90;;;;;;5220449;28;20127;-60
2022/07/02 10:43:42;;;;;;;0.60;0.60;;;23.80;99.90;;;;;;5219400;28;20025;-63
2022/07/02 10:46:17;;;;;;;0.98;0.70;;;24.10;99.90;;;;;;5217733;28;20237;-61
2022/07/02 10:48:48;;;;;;;;;;;23.90;99.90;;;;;;5219122;28;20035;-61
2022/07/02 10:51:25;;;;;;;0.63;0.60;;;24.00;99.90;;;;;;5219070;28;19900;-62
2022/07/02 10:53:58;;;;;;;2.08;0.70;;;26.00;99.90;;;;;;5216416;28;20021;-61
2022/07/02 10:56:42;;;;;;;0.75;0.75;;;26.20;99.90;;;;;;5219368;28;20021;-62
2022/07/02 10:59:26;;;;;;;0.95;0.77;;;25.90;99.90;;;;;;5219090;28;20029;-60
2022/07/02 11:02:02;;;;;;;0.65;0.65;;;26.50;99.90;;;;;;5217973;28;20214;-63
2022/07/02 11:04:38;;;;;;;0.60;0.60;;;27.50;99.90;;;;;;5207455;28;20360;-63
2022/07/02 11:07:11;;;;;;;0.70;0.70;;;27.40;99.90;;;;;;5217817;28;20051;-60
2022/07/02 11:09:57;;;;;;;0.80;0.80;;;26.70;99.90;;;;;;5217293;28;20029;-61
2022/07/02 11:12:44;;;;;;;0.55;0.55;;;27.00;99.90;;;;;;5201781;28;20453;-63
2022/07/02 11:15:20;;;;;;;0.63;0.63;;;27.70;99.90;;;;;;5218544;28;20274;-61
2022/07/02 11:17:59;;;;;;;0.60;0.60;;;28.40;99.90;;;;;;5217580;28;20021;-62
2022/07/02 11:20:36;;;;;;;0.50;0.50;;;27.40;99.90;;;;;;5218218;28;20025;-62
2022/07/02 11:23:13;;;;;;;0.60;0.60;;;27.10;99.90;;;;;;5217058;28;20330;-66
2022/07/02 11:25:50;;;;;;;1.13;0.60;;;27.20;99.90;;;;;;5218594;28;20036;-61
2022/07/02 11:28:21;;;;;;;0.50;0.50;;;27.10;99.90;;;;;;5203009;28;20033;-61
2022/07/02 11:30:57;;;;;;;1.52;0.85;;;27.90;99.90;;;;;;5216544;28;20226;-61
2022/07/02 11:33:29;;;;;;;0.65;0.63;;;27.70;99.90;;;;;;5216445;28;20024;-64
2022/07/02 11:36:03;;;;;;;0.50;0.50;;;27.10;99.90;;;;;;5214118;28;20005;-63
2022/07/02 11:38:39;;;;;;;;;;;26.90;99.90;;;;;;5198365;28;20297;-61
2022/07/02 11:41:27;;;;;;;0.60;0.60;;;27.20;99.90;;;;;;5198791;28;20095;-63
2022/07/02 11:44:14;;;;;;;0.40;0.40;;;29.10;99.90;;;;;;5198337;28;20149;-62
2022/07/02 11:46:56;;;;;;;1.00;0.82;;;28.90;99.90;;;;;;5198280;28;20233;-62
2022/07/02 11:49:37;;;;;;;0.60;0.60;;;29.50;99.90;;;;;;5196343;28;20494;-62
2022/07/02 11:52:09;;;;;;;0.50;0.50;;;29.00;99.90;;;;;;5210417;28;20041;-62
2022/07/02 11:54:44;;;;;;;0.60;0.60;;;29.00;99.90;;;;;;5198118;28;20025;-62
2022/07/02 11:57:15;;;;;;;0.60;0.60;;;29.40;99.90;;;;;;5211534;28;20209;-61
2022/07/02 11:59:54;;;;;;;0.77;0.60;;;29.50;99.90;;;;;;5216558;28;20025;-62
2022/07/02 12:02:39;;;;;;;0.90;0.90;;;29.30;99.90;;;;;;5198532;28;20039;-62
2022/07/02 12:05:18;;;;;;;0.63;0.60;;;29.20;99.90;;;;;;5207128;28;20272;-61
2022/07/02 12:07:52;;;;;;;0.70;0.70;;;29.10;99.90;;;;;;5217883;28;20264;-64
2022/07/02 12:10:23;;;;;;;0.60;0.60;;;28.60;99.90;;;;;;5216633;28;20040;-62
2022/07/02 12:12:55;;;;;;;0.50;0.50;;;28.50;99.90;;;;;;5218320;28;20021;-61
2022/07/02 12:15:26;;;;;;;0.68;0.68;;;28.10;99.90;;;;;;5218166;28;20282;-63
2022/07/02 12:18:00;;;;;;;2.78;0.70;;;28.90;99.90;;;;;;5199293;28;20205;-64
2022/07/02 12:20:31;;;;;;;1.25;1.15;;;29.10;99.90;;;;;;5216891;28;20028;-63
2022/07/02 12:23:04;;;;;;;3.58;0.70;;;29.60;99.90;;;;;;5204658;28;20033;-62
2022/07/02 12:25:46;;;;;;;0.60;0.60;;;29.30;99.90;;;;;;5180016;28;20025;-61
2022/07/02 12:31:08;;;;;;;0.68;0.63;;;30.50;99.90;;;;;;5197494;28;20194;-61
2022/07/02 12:33:39;;;;;;;0.82;0.82;;;31.10;99.90;;;;;;5203440;28;20218;-62
2022/07/02 12:36:13;;;;;;;1.02;0.80;;;29.70;99.90;;;;;;5197828;28;20394;-61
2022/07/02 12:38:45;;;;;;;1.33;1.00;;;29.00;99.90;;;;;;5179823;28;20029;-62
2022/07/02 12:41:19;;;;;;;1.52;0.73;;;29.80;99.90;;;;;;5164107;28;20030;-61
2022/07/02 12:43:55;;;;;;;4.43;0.60;;;30.90;99.90;;;;;;5199945;28;20021;-63
2022/07/02 12:46:30;;;;;;;0.55;0.55;;;29.80;99.90;;;;;;5201969;28;20191;-62
2022/07/02 12:49:01;;;;;;;;;;;29.90;99.90;;;;;;5200642;28;20021;-62
2022/07/02 12:51:35;;;;;;;0.60;0.60;;;32.40;99.90;;;;;;5210986;28;19901;-63
2022/07/02 12:54:06;;;;;;;0.70;0.70;;;33.00;99.90;;;;;;5222782;28;20221;-63
2022/07/02 12:56:42;;;;;;;1.20;0.70;;;31.90;99.90;;;;;;5222350;28;20210;-62
2022/07/02 12:59:16;;;;;;;0.70;0.70;;;30.60;99.90;;;;;;5221512;28;20232;-63
2022/07/02 13:01:47;;;;;;;0.82;0.82;;;30.50;99.90;;;;;;5222159;28;20021;-61
2022/07/02 13:04:18;;;;;;;0.60;0.60;;;31.80;99.90;;;;;;5211792;28;20300;-63
2022/07/02 13:06:49;;;;;;;0.95;0.80;;;33.20;99.90;;;;;;5218032;28;20025;-60
2022/07/02 13:09:21;;;;;;;1.30;1.20;;;33.70;99.90;;;;;;5219002;28;20187;-61
2022/07/02 13:11:52;;;;;;;1.05;0.63;;;31.70;99.90;;;;;;5219213;28;20214;-61
2022/07/02 13:14:28;;;;;;;0.88;0.80;;;31.10;99.90;;;;;;5221895;28;20031;-61
2022/07/02 13:17:02;;;;;;;0.52;0.52;;;29.20;99.90;;;;;;5221442;28;20025;-61
2022/07/02 13:19:36;;;;;;;0.63;0.63;;;29.90;99.90;;;;;;5219750;28;20025;-63
2022/07/02 13:22:08;;;;;;;2.05;0.70;;;29.50;99.90;;;;;;5208457;28;20032;-61
2022/07/02 13:24:42;;;;;;;0.73;0.60;;;29.80;99.90;;;;;;5224406;28;20035;-63
2022/07/02 13:27:13;;;;;;;;;;;29.60;99.90;;;;;;5220749;28;20021;-61
2022/07/02 13:29:45;;;;;;;0.70;0.60;;;30.60;99.90;;;;;;5222259;28;19908;-61
2022/07/02 13:32:18;;;;;;;1.52;0.77;;;31.80;99.90;;;;;;5236271;28;20036;-61
2022/07/02 13:34:51;;;;;;;1.38;0.80;;;31.90;99.90;;;;;;5204600;28;20060;-60